sensor_id;sensor_type;location;lat;lon;timestamp;P1;durP1;ratioP1;P2;durP2;ratioP2
8913;SDS011;4492;48.736;9.092;2022-10-17T00:00:54;1.80;;;1.70;;
8913;SDS011;4492;48.736;9.092;2022-10-17T00:03:20;1.70;;;1.60;;
8913;SDS011;4492;48.736;9.092;2022-10-17T00:05:46;3.00;;;1.87;;
8913;SDS011;4492;48.736;9.092;2022-10-17T00:08:13;2.13;;;1.90;;
8913;SDS011;4492;48.736;9.092;2022-10-17T00:10:40;11.50;;;2.60;;
8913;SDS011;4492;48.736;9.092;2022-10-17T00:13:06;3.67;;;1.83;;
8913;SDS011;4492;48.736;9.092;2022-10-17T00:15:33;2.00;;;1.80;;
8913;SDS011;4492;48.736;9.092;2022-10-17T00:17:59;4.27;;;2.00;;
8913;SDS011;4492;48.736;9.092;2022-10-17T00:20:25;5.80;;;2.20;;
8913;SDS011;4492;48.736;9.092;2022-10-17T00:22:51;2.80;;;2.30;;
8913;SDS011;4492;48.736;9.092;2022-10-17T00:25:17;5.80;;;3.20;;
8913;SDS011;4492;48.736;9.092;2022-10-17T00:27:43;1.70;;;1.60;;
8913;SDS011;4492;48.736;9.092;2022-10-17T00:30:10;3.33;;;2.03;;
8913;SDS011;4492;48.736;9.092;2022-10-17T00:32:37;3.07;;;1.90;;
8913;SDS011;4492;48.736;9.092;2022-10-17T00:35:04;2.13;;;1.93;;
8913;SDS011;4492;48.736;9.092;2022-10-17T00:37:30;2.63;;;1.60;;
8913;SDS011;4492;48.736;9.092;2022-10-17T00:39:56;2.00;;;1.80;;
8913;SDS011;4492;48.736;9.092;2022-10-17T00:42:22;4.33;;;2.00;;
8913;SDS011;4492;48.736;9.092;2022-10-17T00:47:15;2.10;;;2.00;;
8913;SDS011;4492;48.736;9.092;2022-10-17T00:49:43;3.80;;;1.93;;
8913;SDS011;4492;48.736;9.092;2022-10-17T00:52:13;2.00;;;1.90;;
8913;SDS011;4492;48.736;9.092;2022-10-17T00:54:51;1.80;;;1.70;;
8913;SDS011;4492;48.736;9.092;2022-10-17T00:57:20;4.20;;;1.90;;
8913;SDS011;4492;48.736;9.092;2022-10-17T00:59:47;1.93;;;1.73;;
8913;SDS011;4492;48.736;9.092;2022-10-17T01:02:16;3.90;;;1.90;;
8913;SDS011;4492;48.736;9.092;2022-10-17T01:04:44;2.23;;;2.00;;
8913;SDS011;4492;48.736;9.092;2022-10-17T01:07:12;3.60;;;1.80;;
8913;SDS011;4492;48.736;9.092;2022-10-17T01:09:38;4.67;;;2.30;;
8913;SDS011;4492;48.736;9.092;2022-10-17T01:23:47;2.00;;;1.90;;
8913;SDS011;4492;48.736;9.092;2022-10-17T01:26:41;5.43;;;1.93;;
8913;SDS011;4492;48.736;9.092;2022-10-17T01:29:15;2.30;;;2.10;;
8913;SDS011;4492;48.736;9.092;2022-10-17T01:32:07;3.13;;;2.37;;
8913;SDS011;4492;48.736;9.092;2022-10-17T01:34:54;2.93;;;2.30;;
8913;SDS011;4492;48.736;9.092;2022-10-17T01:40:04;4.40;;;2.20;;
8913;SDS011;4492;48.736;9.092;2022-10-17T01:42:37;3.10;;;2.33;;
8913;SDS011;4492;48.736;9.092;2022-10-17T01:47:57;2.77;;;2.57;;
8913;SDS011;4492;48.736;9.092;2022-10-17T01:50:30;4.83;;;2.57;;
8913;SDS011;4492;48.736;9.092;2022-10-17T01:53:00;5.67;;;2.97;;
8913;SDS011;4492;48.736;9.092;2022-10-17T01:55:33;3.37;;;2.30;;
8913;SDS011;4492;48.736;9.092;2022-10-17T01:58:02;3.00;;;2.33;;
8913;SDS011;4492;48.736;9.092;2022-10-17T02:00:50;3.73;;;2.17;;
8913;SDS011;4492;48.736;9.092;2022-10-17T02:03:17;3.30;;;1.97;;
8913;SDS011;4492;48.736;9.092;2022-10-17T02:05:44;2.47;;;2.03;;
8913;SDS011;4492;48.736;9.092;2022-10-17T02:08:10;2.97;;;2.77;;
8913;SDS011;4492;48.736;9.092;2022-10-17T02:10:38;4.17;;;1.80;;
8913;SDS011;4492;48.736;9.092;2022-10-17T02:13:18;2.10;;;2.00;;
8913;SDS011;4492;48.736;9.092;2022-10-17T02:16:50;4.07;;;1.90;;
8913;SDS011;4492;48.736;9.092;2022-10-17T02:19:06;5.50;;;2.27;;
8913;SDS011;4492;48.736;9.092;2022-10-17T02:22:00;2.13;;;2.03;;
8913;SDS011;4492;48.736;9.092;2022-10-17T02:24:48;2.90;;;2.70;;
8913;SDS011;4492;48.736;9.092;2022-10-17T02:27:22;7.27;;;2.80;;
8913;SDS011;4492;48.736;9.092;2022-10-17T02:32:37;2.77;;;2.00;;
8913;SDS011;4492;48.736;9.092;2022-10-17T02:35:08;2.83;;;2.30;;
8913;SDS011;4492;48.736;9.092;2022-10-17T02:37:37;2.30;;;2.10;;
8913;SDS011;4492;48.736;9.092;2022-10-17T02:40:04;5.00;;;2.30;;
8913;SDS011;4492;48.736;9.092;2022-10-17T02:42:32;2.50;;;2.30;;
8913;SDS011;4492;48.736;9.092;2022-10-17T02:44:59;3.47;;;2.57;;
8913;SDS011;4492;48.736;9.092;2022-10-17T02:47:28;2.50;;;2.30;;
8913;SDS011;4492;48.736;9.092;2022-10-17T02:49:58;2.60;;;2.40;;
8913;SDS011;4492;48.736;9.092;2022-10-17T02:52:28;3.57;;;2.70;;
8913;SDS011;4492;48.736;9.092;2022-10-17T02:55:23;3.03;;;2.00;;
8913;SDS011;4492;48.736;9.092;2022-10-17T02:57:58;3.90;;;2.53;;
8913;SDS011;4492;48.736;9.092;2022-10-17T03:00:28;3.20;;;2.53;;
8913;SDS011;4492;48.736;9.092;2022-10-17T03:02:55;2.50;;;2.20;;
8913;SDS011;4492;48.736;9.092;2022-10-17T03:05:24;2.50;;;2.30;;
8913;SDS011;4492;48.736;9.092;2022-10-17T03:07:51;4.23;;;2.70;;
8913;SDS011;4492;48.736;9.092;2022-10-17T03:10:18;2.93;;;2.50;;
8913;SDS011;4492;48.736;9.092;2022-10-17T03:12:44;4.90;;;2.57;;
8913;SDS011;4492;48.736;9.092;2022-10-17T03:15:10;2.97;;;2.70;;
8913;SDS011;4492;48.736;9.092;2022-10-17T03:17:35;6.17;;;2.67;;
8913;SDS011;4492;48.736;9.092;2022-10-17T03:20:01;5.90;;;2.80;;
8913;SDS011;4492;48.736;9.092;2022-10-17T03:22:27;3.33;;;2.50;;
8913;SDS011;4492;48.736;9.092;2022-10-17T03:24:53;3.20;;;2.30;;
8913;SDS011;4492;48.736;9.092;2022-10-17T03:27:19;3.97;;;2.80;;
8913;SDS011;4492;48.736;9.092;2022-10-17T03:29:44;4.63;;;2.47;;
8913;SDS011;4492;48.736;9.092;2022-10-17T03:32:09;3.50;;;2.70;;
8913;SDS011;4492;48.736;9.092;2022-10-17T03:34:35;4.70;;;2.80;;
8913;SDS011;4492;48.736;9.092;2022-10-17T03:37:01;2.60;;;2.40;;
8913;SDS011;4492;48.736;9.092;2022-10-17T03:39:26;4.57;;;3.00;;
8913;SDS011;4492;48.736;9.092;2022-10-17T03:41:52;4.93;;;2.63;;
8913;SDS011;4492;48.736;9.092;2022-10-17T03:44:17;3.30;;;2.70;;
8913;SDS011;4492;48.736;9.092;2022-10-17T03:46:43;4.73;;;3.10;;
8913;SDS011;4492;48.736;9.092;2022-10-17T03:49:09;3.40;;;3.10;;
8913;SDS011;4492;48.736;9.092;2022-10-17T03:51:35;4.03;;;2.97;;
8913;SDS011;4492;48.736;9.092;2022-10-17T03:54:00;5.83;;;3.87;;
8913;SDS011;4492;48.736;9.092;2022-10-17T03:56:26;4.80;;;2.67;;
8913;SDS011;4492;48.736;9.092;2022-10-17T03:58:52;2.97;;;2.67;;
8913;SDS011;4492;48.736;9.092;2022-10-17T04:01:19;3.17;;;2.87;;
8913;SDS011;4492;48.736;9.092;2022-10-17T04:03:47;4.90;;;2.67;;
8913;SDS011;4492;48.736;9.092;2022-10-17T04:06:14;2.67;;;2.47;;
8913;SDS011;4492;48.736;9.092;2022-10-17T04:08:40;5.23;;;2.50;;
8913;SDS011;4492;48.736;9.092;2022-10-17T04:11:06;3.13;;;2.43;;
8913;SDS011;4492;48.736;9.092;2022-10-17T04:13:33;4.30;;;2.83;;
8913;SDS011;4492;48.736;9.092;2022-10-17T04:16:00;4.10;;;2.93;;
8913;SDS011;4492;48.736;9.092;2022-10-17T04:18:34;3.73;;;3.07;;
8913;SDS011;4492;48.736;9.092;2022-10-17T04:21:03;3.77;;;2.93;;
8913;SDS011;4492;48.736;9.092;2022-10-17T04:23:30;4.57;;;3.80;;
8913;SDS011;4492;48.736;9.092;2022-10-17T04:25:56;3.97;;;3.30;;
8913;SDS011;4492;48.736;9.092;2022-10-17T04:28:24;3.23;;;2.93;;
8913;SDS011;4492;48.736;9.092;2022-10-17T04:31:00;3.97;;;2.70;;
8913;SDS011;4492;48.736;9.092;2022-10-17T04:33:28;3.10;;;2.60;;
8913;SDS011;4492;48.736;9.092;2022-10-17T04:35:58;4.20;;;2.90;;
8913;SDS011;4492;48.736;9.092;2022-10-17T04:38:24;5.83;;;3.20;;
8913;SDS011;4492;48.736;9.092;2022-10-17T04:40:51;3.10;;;2.80;;
8913;SDS011;4492;48.736;9.092;2022-10-17T04:43:17;4.20;;;2.70;;
8913;SDS011;4492;48.736;9.092;2022-10-17T04:45:43;3.67;;;2.80;;
8913;SDS011;4492;48.736;9.092;2022-10-17T04:48:08;2.60;;;2.40;;
8913;SDS011;4492;48.736;9.092;2022-10-17T04:50:34;3.80;;;2.87;;
8913;SDS011;4492;48.736;9.092;2022-10-17T04:52:59;5.73;;;2.53;;
8913;SDS011;4492;48.736;9.092;2022-10-17T04:55:25;2.77;;;2.53;;
8913;SDS011;4492;48.736;9.092;2022-10-17T04:57:50;4.87;;;3.00;;
8913;SDS011;4492;48.736;9.092;2022-10-17T05:00:16;5.10;;;3.13;;
8913;SDS011;4492;48.736;9.092;2022-10-17T05:02:42;4.37;;;3.23;;
8913;SDS011;4492;48.736;9.092;2022-10-17T05:05:07;5.53;;;2.93;;
8913;SDS011;4492;48.736;9.092;2022-10-17T05:07:33;5.67;;;2.70;;
8913;SDS011;4492;48.736;9.092;2022-10-17T05:09:59;9.83;;;3.13;;
8913;SDS011;4492;48.736;9.092;2022-10-17T05:12:24;3.37;;;3.00;;
8913;SDS011;4492;48.736;9.092;2022-10-17T05:14:50;5.07;;;3.30;;
8913;SDS011;4492;48.736;9.092;2022-10-17T05:17:16;5.07;;;3.20;;
8913;SDS011;4492;48.736;9.092;2022-10-17T05:19:41;4.97;;;3.50;;
8913;SDS011;4492;48.736;9.092;2022-10-17T05:22:07;4.17;;;3.10;;
8913;SDS011;4492;48.736;9.092;2022-10-17T05:24:33;4.97;;;3.30;;
8913;SDS011;4492;48.736;9.092;2022-10-17T05:26:58;3.50;;;3.10;;
8913;SDS011;4492;48.736;9.092;2022-10-17T05:29:24;3.73;;;3.43;;
8913;SDS011;4492;48.736;9.092;2022-10-17T05:31:49;5.43;;;3.30;;
8913;SDS011;4492;48.736;9.092;2022-10-17T05:34:15;3.97;;;3.10;;
8913;SDS011;4492;48.736;9.092;2022-10-17T05:36:40;6.47;;;3.00;;
8913;SDS011;4492;48.736;9.092;2022-10-17T05:39:06;3.13;;;2.83;;
8913;SDS011;4492;48.736;9.092;2022-10-17T05:41:32;9.90;;;3.70;;
8913;SDS011;4492;48.736;9.092;2022-10-17T05:43:58;5.47;;;3.90;;
8913;SDS011;4492;48.736;9.092;2022-10-17T05:46:24;5.83;;;4.20;;
8913;SDS011;4492;48.736;9.092;2022-10-17T05:48:49;4.47;;;3.90;;
8913;SDS011;4492;48.736;9.092;2022-10-17T05:51:15;8.33;;;4.10;;
8913;SDS011;4492;48.736;9.092;2022-10-17T05:53:41;4.97;;;2.90;;
8913;SDS011;4492;48.736;9.092;2022-10-17T05:56:07;7.73;;;3.17;;
8913;SDS011;4492;48.736;9.092;2022-10-17T05:58:34;3.70;;;3.20;;
8913;SDS011;4492;48.736;9.092;2022-10-17T06:01:02;3.90;;;3.50;;
8913;SDS011;4492;48.736;9.092;2022-10-17T06:03:29;4.60;;;3.60;;
8913;SDS011;4492;48.736;9.092;2022-10-17T06:05:55;5.83;;;3.53;;
8913;SDS011;4492;48.736;9.092;2022-10-17T06:08:26;4.37;;;3.70;;
8913;SDS011;4492;48.736;9.092;2022-10-17T06:10:52;3.83;;;3.27;;
8913;SDS011;4492;48.736;9.092;2022-10-17T06:13:17;5.70;;;3.03;;
8913;SDS011;4492;48.736;9.092;2022-10-17T06:15:44;3.50;;;3.20;;
8913;SDS011;4492;48.736;9.092;2022-10-17T06:18:09;7.17;;;3.13;;
8913;SDS011;4492;48.736;9.092;2022-10-17T06:20:36;3.87;;;3.47;;
8913;SDS011;4492;48.736;9.092;2022-10-17T06:23:01;4.47;;;3.20;;
8913;SDS011;4492;48.736;9.092;2022-10-17T06:25:27;3.87;;;3.27;;
8913;SDS011;4492;48.736;9.092;2022-10-17T06:27:55;4.43;;;3.73;;
8913;SDS011;4492;48.736;9.092;2022-10-17T06:30:20;4.67;;;3.80;;
8913;SDS011;4492;48.736;9.092;2022-10-17T06:32:46;6.30;;;4.30;;
8913;SDS011;4492;48.736;9.092;2022-10-17T06:35:12;4.93;;;3.47;;
8913;SDS011;4492;48.736;9.092;2022-10-17T06:37:38;3.90;;;3.53;;
8913;SDS011;4492;48.736;9.092;2022-10-17T06:40:04;4.47;;;3.57;;
8913;SDS011;4492;48.736;9.092;2022-10-17T06:42:31;5.70;;;3.33;;
8913;SDS011;4492;48.736;9.092;2022-10-17T06:44:57;2.90;;;2.70;;
8913;SDS011;4492;48.736;9.092;2022-10-17T06:47:23;5.03;;;3.10;;
8913;SDS011;4492;48.736;9.092;2022-10-17T06:49:48;3.70;;;2.30;;
8913;SDS011;4492;48.736;9.092;2022-10-17T06:52:14;2.40;;;2.20;;
8913;SDS011;4492;48.736;9.092;2022-10-17T06:54:41;9.00;;;3.40;;
8913;SDS011;4492;48.736;9.092;2022-10-17T06:57:07;3.37;;;2.90;;
8913;SDS011;4492;48.736;9.092;2022-10-17T06:59:32;2.37;;;2.17;;
8913;SDS011;4492;48.736;9.092;2022-10-17T07:01:59;3.13;;;2.10;;
8913;SDS011;4492;48.736;9.092;2022-10-17T07:04:25;3.00;;;2.40;;
8913;SDS011;4492;48.736;9.092;2022-10-17T07:06:51;5.10;;;2.90;;
8913;SDS011;4492;48.736;9.092;2022-10-17T07:09:17;2.73;;;2.10;;
8913;SDS011;4492;48.736;9.092;2022-10-17T07:11:43;4.60;;;2.20;;
8913;SDS011;4492;48.736;9.092;2022-10-17T07:14:08;5.20;;;1.93;;
8913;SDS011;4492;48.736;9.092;2022-10-17T07:16:34;7.03;;;2.00;;
8913;SDS011;4492;48.736;9.092;2022-10-17T07:19:00;4.50;;;2.10;;
8913;SDS011;4492;48.736;9.092;2022-10-17T07:21:25;6.37;;;2.37;;
8913;SDS011;4492;48.736;9.092;2022-10-17T07:23:51;3.63;;;1.93;;
8913;SDS011;4492;48.736;9.092;2022-10-17T07:26:17;3.70;;;1.90;;
8913;SDS011;4492;48.736;9.092;2022-10-17T07:28:44;1.90;;;1.70;;
8913;SDS011;4492;48.736;9.092;2022-10-17T07:31:12;1.70;;;1.60;;
8913;SDS011;4492;48.736;9.092;2022-10-17T07:33:40;1.83;;;1.73;;
8913;SDS011;4492;48.736;9.092;2022-10-17T07:36:06;2.90;;;2.13;;
8913;SDS011;4492;48.736;9.092;2022-10-17T07:38:32;2.43;;;1.60;;
8913;SDS011;4492;48.736;9.092;2022-10-17T07:40:59;2.30;;;2.10;;
8913;SDS011;4492;48.736;9.092;2022-10-17T07:43:26;4.90;;;1.83;;
8913;SDS011;4492;48.736;9.092;2022-10-17T07:45:52;5.87;;;1.90;;
8913;SDS011;4492;48.736;9.092;2022-10-17T07:48:19;3.80;;;1.83;;
8913;SDS011;4492;48.736;9.092;2022-10-17T07:50:45;2.00;;;1.80;;
8913;SDS011;4492;48.736;9.092;2022-10-17T07:53:10;5.23;;;1.90;;
8913;SDS011;4492;48.736;9.092;2022-10-17T07:55:36;2.20;;;2.00;;
8913;SDS011;4492;48.736;9.092;2022-10-17T07:58:03;2.57;;;1.93;;
8913;SDS011;4492;48.736;9.092;2022-10-17T08:00:29;3.07;;;1.93;;
8913;SDS011;4492;48.736;9.092;2022-10-17T08:02:54;7.13;;;2.27;;
8913;SDS011;4492;48.736;9.092;2022-10-17T08:05:20;2.70;;;1.97;;
8913;SDS011;4492;48.736;9.092;2022-10-17T08:07:46;3.60;;;2.30;;
8913;SDS011;4492;48.736;9.092;2022-10-17T08:10:12;3.33;;;2.10;;
8913;SDS011;4492;48.736;9.092;2022-10-17T08:12:39;2.23;;;2.00;;
8913;SDS011;4492;48.736;9.092;2022-10-17T08:15:05;2.47;;;2.10;;
8913;SDS011;4492;48.736;9.092;2022-10-17T08:17:33;3.87;;;2.00;;
8913;SDS011;4492;48.736;9.092;2022-10-17T08:19:59;7.90;;;1.80;;
8913;SDS011;4492;48.736;9.092;2022-10-17T08:22:25;3.73;;;1.90;;
8913;SDS011;4492;48.736;9.092;2022-10-17T08:24:50;2.63;;;1.70;;
8913;SDS011;4492;48.736;9.092;2022-10-17T08:27:16;1.37;;;1.27;;
8913;SDS011;4492;48.736;9.092;2022-10-17T08:29:47;1.80;;;1.70;;
8913;SDS011;4492;48.736;9.092;2022-10-17T08:32:16;1.60;;;1.50;;
8913;SDS011;4492;48.736;9.092;2022-10-17T08:34:43;2.00;;;1.50;;
8913;SDS011;4492;48.736;9.092;2022-10-17T08:37:08;2.30;;;1.40;;
8913;SDS011;4492;48.736;9.092;2022-10-17T08:39:34;2.37;;;1.83;;
8913;SDS011;4492;48.736;9.092;2022-10-17T08:44:54;2.67;;;1.80;;
8913;SDS011;4492;48.736;9.092;2022-10-17T08:47:35;2.90;;;1.63;;
8913;SDS011;4492;48.736;9.092;2022-10-17T08:50:04;2.27;;;1.60;;
8913;SDS011;4492;48.736;9.092;2022-10-17T08:52:41;1.87;;;1.77;;
8913;SDS011;4492;48.736;9.092;2022-10-17T08:55:17;4.77;;;1.80;;
8913;SDS011;4492;48.736;9.092;2022-10-17T08:57:53;3.97;;;1.90;;
8913;SDS011;4492;48.736;9.092;2022-10-17T09:00:20;2.30;;;1.73;;
8913;SDS011;4492;48.736;9.092;2022-10-17T09:05:43;3.33;;;1.90;;
8913;SDS011;4492;48.736;9.092;2022-10-17T09:08:23;6.33;;;1.70;;
8913;SDS011;4492;48.736;9.092;2022-10-17T09:10:59;3.27;;;1.80;;
8913;SDS011;4492;48.736;9.092;2022-10-17T09:19:23;2.20;;;1.70;;
8913;SDS011;4492;48.736;9.092;2022-10-17T09:21:54;2.80;;;1.70;;
8913;SDS011;4492;48.736;9.092;2022-10-17T09:26:55;1.70;;;1.60;;
8913;SDS011;4492;48.736;9.092;2022-10-17T09:29:21;2.03;;;1.63;;
8913;SDS011;4492;48.736;9.092;2022-10-17T09:31:54;2.17;;;1.67;;
8913;SDS011;4492;48.736;9.092;2022-10-17T09:34:41;1.93;;;1.67;;
8913;SDS011;4492;48.736;9.092;2022-10-17T09:37:09;2.70;;;1.90;;
8913;SDS011;4492;48.736;9.092;2022-10-17T09:39:38;2.87;;;2.00;;
8913;SDS011;4492;48.736;9.092;2022-10-17T09:42:05;2.37;;;1.80;;
8913;SDS011;4492;48.736;9.092;2022-10-17T09:44:34;3.13;;;1.60;;
8913;SDS011;4492;48.736;9.092;2022-10-17T09:47:25;2.47;;;1.90;;
8913;SDS011;4492;48.736;9.092;2022-10-17T09:49:55;1.90;;;1.70;;
8913;SDS011;4492;48.736;9.092;2022-10-17T09:52:26;4.27;;;1.80;;
8913;SDS011;4492;48.736;9.092;2022-10-17T09:57:54;1.97;;;1.60;;
8913;SDS011;4492;48.736;9.092;2022-10-17T10:00:32;2.13;;;1.93;;
8913;SDS011;4492;48.736;9.092;2022-10-17T10:05:40;1.87;;;1.60;;
8913;SDS011;4492;48.736;9.092;2022-10-17T10:08:12;1.90;;;1.70;;
8913;SDS011;4492;48.736;9.092;2022-10-17T10:10:43;3.73;;;1.90;;
8913;SDS011;4492;48.736;9.092;2022-10-17T10:13:18;2.33;;;1.70;;
8913;SDS011;4492;48.736;9.092;2022-10-17T10:15:47;1.93;;;1.83;;
8913;SDS011;4492;48.736;9.092;2022-10-17T10:21:06;2.10;;;1.83;;
8913;SDS011;4492;48.736;9.092;2022-10-17T10:23:37;2.73;;;1.70;;
8913;SDS011;4492;48.736;9.092;2022-10-17T10:26:11;4.43;;;2.00;;
8913;SDS011;4492;48.736;9.092;2022-10-17T10:28:47;1.60;;;1.50;;
8913;SDS011;4492;48.736;9.092;2022-10-17T10:31:32;4.10;;;1.70;;
8913;SDS011;4492;48.736;9.092;2022-10-17T10:34:02;3.93;;;1.87;;
8913;SDS011;4492;48.736;9.092;2022-10-17T10:36:48;2.53;;;1.60;;
8913;SDS011;4492;48.736;9.092;2022-10-17T10:42:05;4.50;;;1.80;;
8913;SDS011;4492;48.736;9.092;2022-10-17T10:44:41;3.90;;;1.80;;
8913;SDS011;4492;48.736;9.092;2022-10-17T10:47:20;1.60;;;1.50;;
8913;SDS011;4492;48.736;9.092;2022-10-17T10:49:52;1.80;;;1.70;;
8913;SDS011;4492;48.736;9.092;2022-10-17T10:52:37;3.37;;;1.77;;
8913;SDS011;4492;48.736;9.092;2022-10-17T10:55:22;4.90;;;1.70;;
8913;SDS011;4492;48.736;9.092;2022-10-17T10:57:56;3.10;;;2.00;;
8913;SDS011;4492;48.736;9.092;2022-10-17T11:00:25;3.13;;;1.80;;
8913;SDS011;4492;48.736;9.092;2022-10-17T11:14:11;3.00;;;1.50;;
8913;SDS011;4492;48.736;9.092;2022-10-17T11:16:56;3.50;;;1.43;;
8913;SDS011;4492;48.736;9.092;2022-10-17T11:19:41;2.00;;;1.80;;
8913;SDS011;4492;48.736;9.092;2022-10-17T11:22:18;2.37;;;1.57;;
8913;SDS011;4492;48.736;9.092;2022-10-17T11:25:03;6.13;;;1.57;;
8913;SDS011;4492;48.736;9.092;2022-10-17T11:27:38;3.63;;;1.40;;
8913;SDS011;4492;48.736;9.092;2022-10-17T11:30:04;5.10;;;1.60;;
8913;SDS011;4492;48.736;9.092;2022-10-17T11:35:04;3.63;;;1.77;;
8913;SDS011;4492;48.736;9.092;2022-10-17T11:37:38;2.43;;;1.50;;
8913;SDS011;4492;48.736;9.092;2022-10-17T11:40:41;4.23;;;1.60;;
8913;SDS011;4492;48.736;9.092;2022-10-17T11:43:01;4.17;;;1.50;;
8913;SDS011;4492;48.736;9.092;2022-10-17T11:45:41;3.00;;;1.40;;
8913;SDS011;4492;48.736;9.092;2022-10-17T11:48:13;4.00;;;1.87;;
8913;SDS011;4492;48.736;9.092;2022-10-17T11:50:47;3.20;;;1.40;;
8913;SDS011;4492;48.736;9.092;2022-10-17T11:53:19;7.13;;;1.70;;
8913;SDS011;4492;48.736;9.092;2022-10-17T11:55:47;5.37;;;1.83;;
8913;SDS011;4492;48.736;9.092;2022-10-17T11:58:21;3.03;;;1.87;;
8913;SDS011;4492;48.736;9.092;2022-10-17T12:01:13;4.20;;;1.50;;
8913;SDS011;4492;48.736;9.092;2022-10-17T12:04:01;3.53;;;1.60;;
8913;SDS011;4492;48.736;9.092;2022-10-17T12:09:12;2.63;;;1.70;;
8913;SDS011;4492;48.736;9.092;2022-10-17T12:12:00;1.90;;;1.60;;
8913;SDS011;4492;48.736;9.092;2022-10-17T12:14:40;3.53;;;1.90;;
8913;SDS011;4492;48.736;9.092;2022-10-17T12:17:20;4.30;;;1.53;;
8913;SDS011;4492;48.736;9.092;2022-10-17T12:19:50;3.00;;;1.70;;
8913;SDS011;4492;48.736;9.092;2022-10-17T12:22:22;2.80;;;1.23;;
8913;SDS011;4492;48.736;9.092;2022-10-17T12:24:59;3.27;;;1.67;;
8913;SDS011;4492;48.736;9.092;2022-10-17T12:27:34;2.00;;;1.80;;
8913;SDS011;4492;48.736;9.092;2022-10-17T12:32:38;1.60;;;1.50;;
8913;SDS011;4492;48.736;9.092;2022-10-17T12:35:19;5.50;;;1.90;;
8913;SDS011;4492;48.736;9.092;2022-10-17T12:45:48;5.03;;;1.97;;
8913;SDS011;4492;48.736;9.092;2022-10-17T12:56:11;4.07;;;1.50;;
8913;SDS011;4492;48.736;9.092;2022-10-17T12:58:41;3.77;;;1.70;;
8913;SDS011;4492;48.736;9.092;2022-10-17T13:01:13;8.40;;;1.70;;
8913;SDS011;4492;48.736;9.092;2022-10-17T13:03:46;2.13;;;1.30;;
8913;SDS011;4492;48.736;9.092;2022-10-17T13:06:20;4.50;;;1.37;;
8913;SDS011;4492;48.736;9.092;2022-10-17T13:08:57;1.60;;;1.50;;
8913;SDS011;4492;48.736;9.092;2022-10-17T13:11:28;4.67;;;1.30;;
8913;SDS011;4492;48.736;9.092;2022-10-17T13:13:59;2.43;;;1.30;;
8913;SDS011;4492;48.736;9.092;2022-10-17T13:16:33;3.93;;;1.33;;
8913;SDS011;4492;48.736;9.092;2022-10-17T13:19:21;3.20;;;1.73;;
8913;SDS011;4492;48.736;9.092;2022-10-17T13:21:52;2.47;;;1.40;;
8913;SDS011;4492;48.736;9.092;2022-10-17T13:24:28;2.13;;;1.70;;
8913;SDS011;4492;48.736;9.092;2022-10-17T13:26:56;2.83;;;1.27;;
8913;SDS011;4492;48.736;9.092;2022-10-17T13:29:22;5.23;;;1.67;;
8913;SDS011;4492;48.736;9.092;2022-10-17T13:31:51;2.77;;;1.50;;
8913;SDS011;4492;48.736;9.092;2022-10-17T13:34:20;4.80;;;2.03;;
8913;SDS011;4492;48.736;9.092;2022-10-17T13:36:52;3.50;;;2.37;;
8913;SDS011;4492;48.736;9.092;2022-10-17T13:39:20;3.73;;;2.00;;
8913;SDS011;4492;48.736;9.092;2022-10-17T13:41:48;6.67;;;2.30;;
8913;SDS011;4492;48.736;9.092;2022-10-17T13:44:23;3.30;;;2.03;;
8913;SDS011;4492;48.736;9.092;2022-10-17T13:46:50;2.40;;;2.20;;
8913;SDS011;4492;48.736;9.092;2022-10-17T13:49:18;2.40;;;2.20;;
8913;SDS011;4492;48.736;9.092;2022-10-17T13:51:53;2.43;;;1.90;;
8913;SDS011;4492;48.736;9.092;2022-10-17T13:54:36;2.10;;;1.60;;
8913;SDS011;4492;48.736;9.092;2022-10-17T13:57:19;4.20;;;1.87;;
8913;SDS011;4492;48.736;9.092;2022-10-17T13:59:51;3.23;;;2.23;;
8913;SDS011;4492;48.736;9.092;2022-10-17T14:02:21;3.33;;;1.73;;
8913;SDS011;4492;48.736;9.092;2022-10-17T14:05:00;1.80;;;1.70;;
8913;SDS011;4492;48.736;9.092;2022-10-17T14:07:39;3.37;;;2.00;;
8913;SDS011;4492;48.736;9.092;2022-10-17T14:10:26;4.23;;;2.07;;
8913;SDS011;4492;48.736;9.092;2022-10-17T14:12:57;1.90;;;1.70;;
8913;SDS011;4492;48.736;9.092;2022-10-17T14:15:27;3.37;;;1.90;;
8913;SDS011;4492;48.736;9.092;2022-10-17T14:17:56;2.17;;;1.70;;
8913;SDS011;4492;48.736;9.092;2022-10-17T14:20:25;2.23;;;1.93;;
8913;SDS011;4492;48.736;9.092;2022-10-17T14:22:52;5.73;;;1.93;;
8913;SDS011;4492;48.736;9.092;2022-10-17T14:25:30;2.13;;;1.70;;
8913;SDS011;4492;48.736;9.092;2022-10-17T14:30:36;3.43;;;1.57;;
8913;SDS011;4492;48.736;9.092;2022-10-17T14:33:07;4.73;;;1.73;;
8913;SDS011;4492;48.736;9.092;2022-10-17T14:35:48;3.90;;;1.70;;
8913;SDS011;4492;48.736;9.092;2022-10-17T14:38:18;3.57;;;1.80;;
8913;SDS011;4492;48.736;9.092;2022-10-17T14:40:52;4.43;;;2.33;;
8913;SDS011;4492;48.736;9.092;2022-10-17T14:43:26;2.33;;;1.87;;
8913;SDS011;4492;48.736;9.092;2022-10-17T14:45:57;2.23;;;1.50;;
8913;SDS011;4492;48.736;9.092;2022-10-17T14:48:23;1.90;;;1.33;;
8913;SDS011;4492;48.736;9.092;2022-10-17T14:53:36;2.67;;;1.87;;
8913;SDS011;4492;48.736;9.092;2022-10-17T14:56:03;2.03;;;1.53;;
8913;SDS011;4492;48.736;9.092;2022-10-17T14:58:45;3.37;;;1.80;;
8913;SDS011;4492;48.736;9.092;2022-10-17T15:01:10;5.07;;;1.97;;
8913;SDS011;4492;48.736;9.092;2022-10-17T15:03:36;5.47;;;1.87;;
8913;SDS011;4492;48.736;9.092;2022-10-17T15:06:08;5.03;;;1.90;;
8913;SDS011;4492;48.736;9.092;2022-10-17T15:08:44;2.17;;;1.90;;
8913;SDS011;4492;48.736;9.092;2022-10-17T15:11:10;4.53;;;2.00;;
8913;SDS011;4492;48.736;9.092;2022-10-17T15:13:36;2.53;;;2.03;;
8913;SDS011;4492;48.736;9.092;2022-10-17T15:16:05;4.60;;;1.70;;
8913;SDS011;4492;48.736;9.092;2022-10-17T15:18:50;5.17;;;1.90;;
8913;SDS011;4492;48.736;9.092;2022-10-17T15:21:18;3.37;;;1.90;;
8913;SDS011;4492;48.736;9.092;2022-10-17T15:23:45;3.93;;;1.80;;
8913;SDS011;4492;48.736;9.092;2022-10-17T15:26:12;4.10;;;2.00;;
8913;SDS011;4492;48.736;9.092;2022-10-17T15:28:53;2.73;;;1.67;;
8913;SDS011;4492;48.736;9.092;2022-10-17T15:31:19;2.80;;;1.80;;
8913;SDS011;4492;48.736;9.092;2022-10-17T15:33:46;3.40;;;1.77;;
8913;SDS011;4492;48.736;9.092;2022-10-17T15:36:23;4.70;;;2.07;;
8913;SDS011;4492;48.736;9.092;2022-10-17T15:38:49;3.80;;;1.83;;
8913;SDS011;4492;48.736;9.092;2022-10-17T15:41:17;2.00;;;1.83;;
8913;SDS011;4492;48.736;9.092;2022-10-17T15:43:43;7.37;;;2.20;;
8913;SDS011;4492;48.736;9.092;2022-10-17T15:46:12;6.27;;;2.20;;
8913;SDS011;4492;48.736;9.092;2022-10-17T15:48:51;3.37;;;1.87;;
8913;SDS011;4492;48.736;9.092;2022-10-17T15:51:18;3.63;;;1.90;;
8913;SDS011;4492;48.736;9.092;2022-10-17T15:53:44;2.20;;;2.00;;
8913;SDS011;4492;48.736;9.092;2022-10-17T15:56:17;4.87;;;2.00;;
8913;SDS011;4492;48.736;9.092;2022-10-17T15:58:51;2.50;;;2.00;;
8913;SDS011;4492;48.736;9.092;2022-10-17T16:01:22;2.40;;;2.20;;
8913;SDS011;4492;48.736;9.092;2022-10-17T16:03:50;3.83;;;2.60;;
8913;SDS011;4492;48.736;9.092;2022-10-17T16:06:16;4.57;;;2.93;;
8913;SDS011;4492;48.736;9.092;2022-10-17T16:08:43;4.70;;;3.10;;
8913;SDS011;4492;48.736;9.092;2022-10-17T16:14:10;3.97;;;3.00;;
8913;SDS011;4492;48.736;9.092;2022-10-17T16:16:37;3.70;;;3.40;;
8913;SDS011;4492;48.736;9.092;2022-10-17T16:19:03;8.83;;;6.00;;
8913;SDS011;4492;48.736;9.092;2022-10-17T16:21:30;9.30;;;5.10;;
8913;SDS011;4492;48.736;9.092;2022-10-17T16:23:59;6.87;;;2.83;;
8913;SDS011;4492;48.736;9.092;2022-10-17T16:26:25;2.50;;;2.23;;
8913;SDS011;4492;48.736;9.092;2022-10-17T16:28:52;4.10;;;2.30;;
8913;SDS011;4492;48.736;9.092;2022-10-17T16:33:47;2.50;;;2.30;;
8913;SDS011;4492;48.736;9.092;2022-10-17T16:36:16;4.07;;;2.80;;
8913;SDS011;4492;48.736;9.092;2022-10-17T16:38:42;7.10;;;2.60;;
8913;SDS011;4492;48.736;9.092;2022-10-17T16:41:15;3.27;;;2.20;;
8913;SDS011;4492;48.736;9.092;2022-10-17T16:43:47;5.10;;;2.33;;
8913;SDS011;4492;48.736;9.092;2022-10-17T16:46:14;7.87;;;2.40;;
8913;SDS011;4492;48.736;9.092;2022-10-17T16:48:41;3.27;;;2.10;;
8913;SDS011;4492;48.736;9.092;2022-10-17T16:51:10;8.10;;;2.63;;
8913;SDS011;4492;48.736;9.092;2022-10-17T16:53:37;4.30;;;2.37;;
8913;SDS011;4492;48.736;9.092;2022-10-17T16:56:07;3.97;;;2.70;;
8913;SDS011;4492;48.736;9.092;2022-10-17T16:58:34;7.23;;;4.27;;
8913;SDS011;4492;48.736;9.092;2022-10-17T17:01:03;3.83;;;3.00;;
8913;SDS011;4492;48.736;9.092;2022-10-17T17:03:38;4.50;;;3.50;;
8913;SDS011;4492;48.736;9.092;2022-10-17T17:06:06;3.60;;;3.30;;